createdAt,value
2022-11-05T00:02:02.949Z,18.27
2022-11-05T00:04:48.438Z,17.00
2022-11-05T00:07:35.002Z,16.50
2022-11-05T00:10:03.598Z,16.57
2022-11-05T00:12:49.511Z,15.33
2022-11-05T00:15:36.108Z,15.50
2022-11-05T00:18:03.941Z,15.20
2022-11-05T00:20:31.521Z,16.17
2022-11-05T00:23:25.180Z,15.87
2022-11-05T00:25:56.457Z,15.90
2022-11-05T00:28:24.223Z,15.83
2022-11-05T00:30:53.111Z,16.97
2022-11-05T00:33:20.898Z,15.80
2022-11-05T00:35:48.434Z,15.43
2022-11-05T00:38:15.948Z,13.97
2022-11-05T00:40:43.875Z,15.20
2022-11-05T00:43:29.016Z,14.80
2022-11-05T00:45:58.128Z,14.50
2022-11-05T00:48:43.298Z,13.70
2022-11-05T00:51:11.081Z,13.50
2022-11-05T00:53:38.561Z,13.90
2022-11-05T00:56:06.176Z,13.93
2022-11-05T00:58:33.796Z,13.90
2022-11-05T01:01:03.029Z,13.10
2022-11-05T01:03:31.510Z,13.90
2022-11-05T01:06:00.438Z,14.10
2022-11-05T01:08:28.400Z,13.70
2022-11-05T01:10:56.974Z,12.70
2022-11-05T01:13:26.245Z,13.47
2022-11-05T01:15:54.049Z,13.57
2022-11-05T01:18:23.740Z,13.40
2022-11-05T01:20:51.970Z,14.07
2022-11-05T01:23:19.892Z,13.73
2022-11-05T01:25:47.859Z,13.30
2022-11-05T01:28:15.869Z,13.80
2022-11-05T01:30:43.473Z,13.30
2022-11-05T01:33:11.411Z,12.20
2022-11-05T01:35:41.458Z,13.87
2022-11-05T01:38:09.058Z,12.37
2022-11-05T01:40:36.565Z,13.93
2022-11-05T01:43:04.213Z,14.50
2022-11-05T01:45:31.736Z,12.53
2022-11-05T01:48:01.187Z,13.63
2022-11-05T01:50:34.658Z,13.27
2022-11-05T01:53:06.763Z,12.67
2022-11-05T01:55:36.424Z,13.13
2022-11-05T01:58:06.697Z,12.43
2022-11-05T02:00:34.422Z,11.97
2022-11-05T02:03:02.671Z,12.80
2022-11-05T02:05:30.612Z,13.97
2022-11-05T02:07:58.098Z,13.47
2022-11-05T02:10:27.463Z,13.00
2022-11-05T02:12:54.980Z,12.73
2022-11-05T02:15:28.727Z,13.77
2022-11-05T02:18:00.938Z,13.83
2022-11-05T02:20:33.316Z,12.80
2022-11-05T02:23:19.670Z,12.67
2022-11-05T02:25:59.438Z,13.40
2022-11-05T02:28:38.058Z,13.90
2022-11-05T02:31:13.065Z,14.20
2022-11-05T02:33:42.696Z,14.63
2022-11-05T02:36:20.064Z,14.70
2022-11-05T02:38:50.994Z,14.10
2022-11-05T02:41:23.172Z,15.03
2022-11-05T02:43:58.862Z,14.80
2022-11-05T02:46:35.244Z,14.70
2022-11-05T02:49:07.604Z,14.57
2022-11-05T02:51:37.099Z,15.60
2022-11-05T02:54:10.386Z,15.70
2022-11-05T02:56:41.150Z,15.60
2022-11-05T02:59:08.742Z,14.10
2022-11-05T03:01:38.481Z,14.73
2022-11-05T03:04:08.486Z,14.17
2022-11-05T03:06:42.763Z,14.47
2022-11-05T03:09:23.509Z,14.80
2022-11-05T03:11:56.636Z,14.67
2022-11-05T03:14:26.217Z,15.40
2022-11-05T03:16:58.524Z,14.97
2022-11-05T03:19:31.040Z,14.80
2022-11-05T03:22:01.749Z,14.40
2022-11-05T03:24:31.937Z,14.00
2022-11-05T03:27:01.699Z,13.40
2022-11-05T03:29:31.220Z,13.70
2022-11-05T03:34:59.697Z,13.27
2022-11-05T03:37:30.913Z,11.70
2022-11-05T03:40:00.380Z,12.20
2022-11-05T03:42:30.752Z,12.87
2022-11-05T03:44:59.744Z,12.13
2022-11-05T03:47:30.131Z,12.07
2022-11-05T03:49:59.862Z,11.57
2022-11-05T03:52:30.116Z,12.00
2022-11-05T03:54:58.012Z,12.20
2022-11-05T03:57:27.156Z,13.57
2022-11-05T03:59:54.996Z,12.57
2022-11-05T04:02:23.683Z,12.30
2022-11-05T04:04:53.224Z,12.83
2022-11-05T04:07:38.817Z,11.90
2022-11-05T04:10:30.059Z,11.73
2022-11-05T04:13:15.568Z,11.67
2022-11-05T04:15:57.033Z,12.60
2022-11-05T04:18:25.025Z,12.00
2022-11-05T04:21:11.339Z,12.97
2022-11-05T04:23:56.785Z,12.20
2022-11-05T04:26:24.325Z,11.73
2022-11-05T04:29:09.771Z,12.77
2022-11-05T04:31:37.411Z,12.00
2022-11-05T04:34:04.988Z,12.73
2022-11-05T04:36:33.980Z,12.67
2022-11-05T04:39:01.749Z,12.50
2022-11-05T04:41:29.253Z,11.80
2022-11-05T04:43:57.054Z,12.07
2022-11-05T04:46:24.660Z,11.70
2022-11-05T04:48:52.145Z,11.60
2022-11-05T04:51:20.546Z,11.47
2022-11-05T04:53:49.334Z,12.03
2022-11-05T04:56:19.337Z,11.13
2022-11-05T04:58:47.193Z,10.97
2022-11-05T05:01:15.647Z,11.20
2022-11-05T05:03:43.525Z,11.07
2022-11-05T05:06:11.300Z,11.63
2022-11-05T05:08:39.023Z,11.37
2022-11-05T05:11:08.721Z,11.70
2022-11-05T05:13:36.824Z,11.70
2022-11-05T05:16:06.167Z,10.07
2022-11-05T05:18:33.896Z,11.40
2022-11-05T05:21:18.858Z,10.70
2022-11-05T05:23:47.765Z,10.83
2022-11-05T05:26:16.658Z,12.17
2022-11-05T05:28:44.418Z,10.07
2022-11-05T05:31:11.868Z,11.63
2022-11-05T05:33:39.649Z,10.50
2022-11-05T05:36:11.353Z,12.03
2022-11-05T05:38:40.083Z,10.40
2022-11-05T05:41:09.615Z,10.27
2022-11-05T05:43:38.640Z,10.80
2022-11-05T05:46:07.365Z,11.30
2022-11-05T05:48:35.226Z,10.53
2022-11-05T05:51:03.190Z,10.70
2022-11-05T05:53:30.738Z,12.07
2022-11-05T05:55:58.676Z,11.20
2022-11-05T05:58:27.669Z,10.50
2022-11-05T06:00:57.119Z,10.43
2022-11-05T06:03:24.789Z,11.10
2022-11-05T06:05:52.683Z,10.77
2022-11-05T06:08:20.369Z,10.87
2022-11-05T06:10:51.252Z,10.50
2022-11-05T06:13:18.938Z,10.50
2022-11-05T06:15:46.436Z,10.37
2022-11-05T06:18:15.548Z,9.83
2022-11-05T06:20:43.368Z,9.00
2022-11-05T06:23:11.216Z,9.90
2022-11-05T06:25:41.391Z,9.87
2022-11-05T06:28:09.509Z,9.33
2022-11-05T06:30:36.973Z,9.10
2022-11-05T06:33:05.041Z,9.83
2022-11-05T06:35:34.032Z,9.50
2022-11-05T06:38:01.929Z,8.80
2022-11-05T06:40:29.761Z,9.37
2022-11-05T06:42:57.769Z,9.90
2022-11-05T06:45:25.273Z,9.13
2022-11-05T06:47:56.316Z,9.70
2022-11-05T06:50:24.200Z,9.67
2022-11-05T06:52:56.613Z,8.60
2022-11-05T06:55:24.823Z,9.17
2022-11-05T06:57:52.319Z,9.27
2022-11-05T07:00:20.001Z,9.10
2022-11-05T07:02:47.580Z,9.13
2022-11-05T07:05:16.745Z,8.97
2022-11-05T07:07:44.811Z,9.10
2022-11-05T07:10:15.619Z,9.03
2022-11-05T07:12:43.189Z,9.80
2022-11-05T07:15:11.351Z,9.80
2022-11-05T07:17:39.503Z,9.07
2022-11-05T07:20:07.669Z,9.40
2022-11-05T07:22:35.638Z,9.87
2022-11-05T07:25:03.360Z,10.10
2022-11-05T07:27:32.245Z,9.80
2022-11-05T07:29:59.789Z,9.40
2022-11-05T07:32:27.910Z,9.70
2022-11-05T07:34:55.348Z,8.87
2022-11-05T07:37:23.156Z,9.90
2022-11-05T07:39:51.329Z,10.30
2022-11-05T07:42:18.898Z,10.17
2022-11-05T07:44:48.161Z,9.93
2022-11-05T07:47:15.657Z,10.47
2022-11-05T07:49:43.137Z,10.40
2022-11-05T07:52:10.969Z,10.23
2022-11-05T07:54:38.630Z,10.10
2022-11-05T07:57:06.396Z,10.83
2022-11-05T07:59:33.862Z,11.80
2022-11-05T08:02:03.332Z,11.13
2022-11-05T08:04:31.357Z,11.23
2022-11-05T08:06:59.061Z,11.80
2022-11-05T08:09:26.682Z,11.67
2022-11-05T08:11:58.544Z,10.10
2022-11-05T08:14:30.648Z,9.87
2022-11-05T08:16:58.219Z,10.50
2022-11-05T08:19:27.270Z,10.60
2022-11-05T08:21:54.927Z,11.77
2022-11-05T08:24:22.433Z,10.90
2022-11-05T08:26:49.928Z,10.00
2022-11-05T08:29:17.751Z,10.67
2022-11-05T08:31:45.233Z,11.13
2022-11-05T08:34:12.909Z,10.93
2022-11-05T08:36:43.302Z,11.20
2022-11-05T08:39:16.695Z,11.40
2022-11-05T08:41:44.975Z,10.27
2022-11-05T08:44:12.494Z,11.43
2022-11-05T08:46:41.750Z,12.40
2022-11-05T08:49:09.975Z,10.77
2022-11-05T08:51:37.491Z,11.87
2022-11-05T08:54:06.657Z,10.43
2022-11-05T08:56:34.520Z,11.70
2022-11-05T08:59:02.004Z,11.33
2022-11-05T09:01:30.505Z,11.47
2022-11-05T09:03:58.928Z,13.17
2022-11-05T09:06:26.560Z,11.17
2022-11-05T09:08:54.048Z,11.97
2022-11-05T09:11:33.057Z,10.90
2022-11-05T09:14:10.750Z,10.47
2022-11-05T09:16:38.398Z,10.37
2022-11-05T09:19:05.900Z,9.30
2022-11-05T09:21:34.556Z,10.00
2022-11-05T09:24:03.159Z,11.50
2022-11-05T09:26:32.002Z,10.03
2022-11-05T09:29:00.376Z,8.40
2022-11-05T09:31:27.904Z,7.67
2022-11-05T09:33:55.543Z,7.37
2022-11-05T09:36:23.036Z,11.57
2022-11-05T09:39:12.314Z,7.90
2022-11-05T09:41:43.543Z,7.27
2022-11-05T09:44:14.313Z,6.37
2022-11-05T09:46:44.615Z,7.03
2022-11-05T09:49:16.174Z,5.90
2022-11-05T09:51:43.931Z,5.47
2022-11-05T09:54:13.000Z,4.60
2022-11-05T09:56:42.559Z,5.10
2022-11-05T09:59:15.252Z,4.43
2022-11-05T10:01:44.573Z,4.80
2022-11-05T10:04:15.838Z,4.70
2022-11-05T10:06:47.292Z,5.80
2022-11-05T10:09:21.128Z,4.63
2022-11-05T10:11:52.873Z,5.00
2022-11-05T10:14:22.429Z,4.87
2022-11-05T10:16:53.861Z,4.37
2022-11-05T10:19:24.477Z,3.90
2022-11-05T10:22:11.237Z,3.50
2022-11-05T10:24:41.756Z,4.13
2022-11-05T10:27:14.637Z,4.00
2022-11-05T10:29:43.742Z,4.20
2022-11-05T10:32:13.394Z,3.50
2022-11-05T10:34:41.216Z,4.27
2022-11-05T10:37:09.651Z,3.93
2022-11-05T10:39:37.366Z,3.73
2022-11-05T10:42:17.280Z,3.10
2022-11-05T10:44:48.807Z,3.20
2022-11-05T10:47:30.475Z,3.80
2022-11-05T10:49:59.369Z,3.97
2022-11-05T10:52:28.119Z,4.00
2022-11-05T10:54:57.876Z,3.53
2022-11-05T10:57:31.121Z,3.33
2022-11-05T11:00:28.321Z,3.17
2022-11-05T11:02:57.639Z,3.57
2022-11-05T11:05:28.236Z,3.30
2022-11-05T11:08:07.591Z,2.93
2022-11-05T11:10:37.986Z,2.73
2022-11-05T11:13:07.577Z,4.60
2022-11-05T11:15:37.213Z,3.30
2022-11-05T11:18:23.787Z,2.83
2022-11-05T11:20:51.769Z,2.77
2022-11-05T11:23:19.517Z,3.37
2022-11-05T11:25:48.442Z,2.43
2022-11-05T11:28:20.983Z,3.50
2022-11-05T11:30:50.781Z,2.97
2022-11-05T11:33:22.448Z,3.80
2022-11-05T11:35:50.166Z,3.77
2022-11-05T11:38:18.540Z,4.00
2022-11-05T11:40:46.872Z,4.73
2022-11-05T11:43:18.446Z,2.70
2022-11-05T11:45:50.130Z,3.17
2022-11-05T11:48:18.352Z,2.77
2022-11-05T11:50:46.895Z,2.90
2022-11-05T11:53:19.035Z,3.03
2022-11-05T11:56:01.490Z,2.23
2022-11-05T11:58:37.073Z,2.10
2022-11-05T12:01:11.434Z,2.23
2022-11-05T12:03:42.591Z,2.50
2022-11-05T12:06:13.881Z,2.17
2022-11-05T12:08:45.759Z,2.20
2022-11-05T12:11:17.293Z,1.50
2022-11-05T12:13:59.465Z,2.20
2022-11-05T12:16:35.409Z,2.10
2022-11-05T12:19:07.787Z,2.13
2022-11-05T12:21:52.680Z,3.37
2022-11-05T12:24:51.437Z,3.07
2022-11-05T12:27:25.157Z,2.83
2022-11-05T12:29:58.727Z,2.03
2022-11-05T12:32:34.023Z,1.70
2022-11-05T12:35:06.556Z,2.13
2022-11-05T12:37:36.572Z,1.97
2022-11-05T12:40:18.090Z,1.90
2022-11-05T12:42:55.916Z,1.73
2022-11-05T12:45:33.813Z,2.10
2022-11-05T12:48:08.237Z,2.60
2022-11-05T12:50:41.025Z,2.10
2022-11-05T12:53:17.538Z,2.17
2022-11-05T12:55:48.742Z,2.00
2022-11-05T12:58:19.528Z,2.40
2022-11-05T13:00:48.753Z,1.63
2022-11-05T13:03:21.235Z,2.30
2022-11-05T13:05:51.108Z,2.83
2022-11-05T13:08:20.569Z,2.13
2022-11-05T13:10:52.377Z,2.80
2022-11-05T13:13:24.091Z,3.63
2022-11-05T13:15:53.700Z,3.10
2022-11-05T13:18:24.755Z,3.23
2022-11-05T13:20:54.340Z,3.10
2022-11-05T13:23:32.096Z,2.07
2022-11-05T13:26:01.576Z,2.57
2022-11-05T13:28:33.740Z,3.10
2022-11-05T13:31:03.552Z,2.00
2022-11-05T13:33:55.347Z,2.37
2022-11-05T13:36:43.055Z,2.20
2022-11-05T13:39:15.052Z,1.87
2022-11-05T13:42:02.243Z,2.17
2022-11-05T13:44:44.680Z,2.10
2022-11-05T13:47:23.877Z,2.43
2022-11-05T13:50:12.554Z,2.30
2022-11-05T13:52:50.899Z,2.07
2022-11-05T13:55:37.351Z,1.80
2022-11-05T13:58:22.379Z,1.97
2022-11-05T14:00:58.337Z,2.70
2022-11-05T14:03:27.020Z,3.80
2022-11-05T14:05:55.530Z,3.13
2022-11-05T14:08:27.707Z,2.90
2022-11-05T14:10:59.927Z,3.20
2022-11-05T14:16:20.224Z,2.33
2022-11-05T14:18:49.539Z,2.70
2022-11-05T14:21:30.801Z,2.30
2022-11-05T14:24:01.333Z,2.60
2022-11-05T14:26:29.704Z,2.03
2022-11-05T14:29:22.516Z,2.80
2022-11-05T14:32:08.885Z,2.40
2022-11-05T14:34:45.044Z,2.43
2022-11-05T14:37:29.146Z,2.63
2022-11-05T14:40:01.606Z,2.13
2022-11-05T14:42:30.402Z,2.27
2022-11-05T14:45:03.482Z,2.77
2022-11-05T14:47:32.688Z,2.20
2022-11-05T14:50:02.420Z,2.60
2022-11-05T14:52:30.973Z,2.00
2022-11-05T14:54:59.848Z,2.10
2022-11-05T14:57:47.430Z,2.60
2022-11-05T15:00:29.892Z,3.70
2022-11-05T15:02:58.238Z,2.50
2022-11-05T15:05:39.325Z,4.47
2022-11-05T15:08:29.028Z,3.30
2022-11-05T15:11:03.309Z,3.27
2022-11-05T15:13:32.450Z,2.60
2022-11-05T15:16:00.577Z,3.83
2022-11-05T15:18:30.381Z,2.57
2022-11-05T15:20:59.609Z,2.60
2022-11-05T15:23:30.512Z,3.27
2022-11-05T15:26:03.541Z,2.97
2022-11-05T15:28:35.095Z,3.10
2022-11-05T15:31:05.138Z,3.27
2022-11-05T15:33:33.041Z,2.90
2022-11-05T15:36:10.068Z,3.20
2022-11-05T15:38:51.961Z,3.07
2022-11-05T15:41:34.628Z,3.37
2022-11-05T15:44:02.701Z,3.80
2022-11-05T15:46:31.219Z,4.73
2022-11-05T15:49:00.218Z,3.30
2022-11-05T15:51:27.960Z,3.57
2022-11-05T15:54:23.729Z,3.80
2022-11-05T15:56:49.125Z,4.43
2022-11-05T15:59:17.344Z,8.83
2022-11-05T16:01:47.428Z,5.00
2022-11-05T16:04:16.975Z,5.50
2022-11-05T16:06:45.971Z,5.17
2022-11-05T16:09:24.104Z,4.70
2022-11-05T16:12:12.053Z,4.23
2022-11-05T16:14:39.732Z,4.43
2022-11-05T16:17:19.393Z,4.37
2022-11-05T16:19:48.445Z,4.60
2022-11-05T16:22:16.040Z,5.47
2022-11-05T16:24:44.157Z,5.80
2022-11-05T16:27:19.391Z,5.67
2022-11-05T16:29:52.141Z,5.83
2022-11-05T16:32:25.449Z,6.60
2022-11-05T16:34:58.528Z,5.73
2022-11-05T16:37:27.370Z,5.67
2022-11-05T16:39:54.958Z,6.40
2022-11-05T16:42:40.551Z,7.80
2022-11-05T16:45:10.444Z,5.70
2022-11-05T16:47:38.181Z,8.23
2022-11-05T16:50:11.384Z,6.67
2022-11-05T16:52:38.923Z,6.00
2022-11-05T16:55:06.522Z,6.37
2022-11-05T16:57:34.600Z,5.40
2022-11-05T17:00:03.640Z,5.80
2022-11-05T17:02:31.641Z,8.47
2022-11-05T17:04:59.491Z,6.70
2022-11-05T17:07:27.234Z,8.00
2022-11-05T17:09:55.906Z,7.20
2022-11-05T17:12:23.912Z,6.87
2022-11-05T17:14:51.528Z,6.10
2022-11-05T17:17:20.633Z,6.03
2022-11-05T17:19:48.196Z,6.87
2022-11-05T17:22:15.869Z,5.93
2022-11-05T17:24:43.368Z,6.40
2022-11-05T17:27:11.173Z,5.77
2022-11-05T17:29:38.636Z,6.47
2022-11-05T17:32:06.423Z,7.00
2022-11-05T17:34:35.579Z,7.47
2022-11-05T17:37:03.236Z,8.20
2022-11-05T17:39:32.008Z,8.20
2022-11-05T17:42:00.017Z,10.20
2022-11-05T17:44:27.501Z,9.83
2022-11-05T17:46:55.188Z,9.63
2022-11-05T17:49:22.790Z,10.27
2022-11-05T17:51:51.936Z,10.50
2022-11-05T17:54:19.434Z,10.00
2022-11-05T17:56:46.977Z,8.47
2022-11-05T17:59:15.090Z,8.70
2022-11-05T18:01:43.759Z,8.53
2022-11-05T18:04:12.070Z,9.00
2022-11-05T18:06:39.994Z,8.53
2022-11-05T18:09:09.791Z,8.30
2022-11-05T18:11:38.153Z,8.27
2022-11-05T18:14:05.638Z,10.33
2022-11-05T18:16:33.434Z,9.10
2022-11-05T18:19:01.430Z,11.70
2022-11-05T18:21:29.023Z,10.40
2022-11-05T18:23:56.677Z,14.03
2022-11-05T18:26:27.334Z,10.23
2022-11-05T18:28:54.943Z,16.50
2022-11-05T18:31:22.685Z,10.97
2022-11-05T18:33:50.864Z,9.63
2022-11-05T18:36:18.677Z,10.40
2022-11-05T18:38:46.475Z,10.20
2022-11-05T18:41:14.186Z,10.60
2022-11-05T18:43:43.294Z,10.30
2022-11-05T18:46:29.317Z,8.50
2022-11-05T18:48:59.122Z,10.10
2022-11-05T18:51:26.880Z,10.10
2022-11-05T18:53:54.532Z,9.77
2022-11-05T18:56:22.263Z,10.27
2022-11-05T18:59:03.319Z,10.00
2022-11-05T19:01:39.750Z,9.43
2022-11-05T19:04:07.386Z,10.00
2022-11-05T19:06:35.309Z,10.80
2022-11-05T19:09:03.415Z,10.43
2022-11-05T19:11:31.377Z,11.50
2022-11-05T19:14:00.279Z,11.37
2022-11-05T19:16:28.930Z,10.73
2022-11-05T19:18:58.899Z,12.23
2022-11-05T19:21:27.109Z,11.83
2022-11-05T19:23:55.486Z,11.90
2022-11-05T19:26:28.361Z,11.50
2022-11-05T19:28:58.118Z,11.80
2022-11-05T19:31:27.474Z,11.97
2022-11-05T19:33:55.609Z,12.27
2022-11-05T19:36:23.996Z,13.80
2022-11-05T19:38:54.734Z,13.93
2022-11-05T19:41:22.792Z,13.70
2022-11-05T19:43:50.673Z,14.53
2022-11-05T19:46:19.345Z,12.87
2022-11-05T19:48:48.305Z,13.07
2022-11-05T19:51:16.980Z,12.20
2022-11-05T19:53:44.626Z,12.57
2022-11-05T19:56:13.255Z,15.40
2022-11-05T19:58:41.474Z,12.47
2022-11-05T20:01:09.508Z,13.60
2022-11-05T20:03:38.073Z,12.17
2022-11-05T20:06:08.855Z,12.90
2022-11-05T20:08:47.843Z,13.30
2022-11-05T20:11:24.464Z,13.30
2022-11-05T20:13:52.165Z,13.43
2022-11-05T20:16:21.038Z,13.03
2022-11-05T20:18:48.736Z,13.23
2022-11-05T20:21:17.815Z,12.50
2022-11-05T20:23:45.819Z,13.07
2022-11-05T20:26:13.416Z,11.60
2022-11-05T20:28:42.565Z,10.57
2022-11-05T20:31:10.998Z,12.07
2022-11-05T20:33:38.960Z,11.80
2022-11-05T20:36:08.297Z,10.80
2022-11-05T20:38:41.591Z,11.40
2022-11-05T20:41:09.366Z,10.40
2022-11-05T20:43:36.889Z,12.63
2022-11-05T20:46:04.917Z,10.77
2022-11-05T20:48:33.315Z,10.53
2022-11-05T20:51:05.029Z,11.90
2022-11-05T20:53:33.537Z,10.50
2022-11-05T20:56:07.599Z,11.30
2022-11-05T20:58:36.303Z,14.27
2022-11-05T21:01:04.695Z,10.67
2022-11-05T21:03:34.283Z,11.83
2022-11-05T21:06:04.825Z,10.30
2022-11-05T21:08:32.683Z,9.93
2022-11-05T21:11:01.674Z,11.17
2022-11-05T21:13:29.525Z,9.27
2022-11-05T21:15:57.887Z,9.20
2022-11-05T21:18:27.011Z,9.83
2022-11-05T21:20:55.204Z,10.00
2022-11-05T21:23:22.772Z,9.00
2022-11-05T21:25:50.331Z,8.73
2022-11-05T21:28:19.588Z,9.97
2022-11-05T21:30:49.032Z,8.53
2022-11-05T21:33:17.629Z,9.33
2022-11-05T21:35:45.843Z,9.10
2022-11-05T21:38:14.395Z,9.37
2022-11-05T21:40:42.447Z,9.43
2022-11-05T21:43:10.356Z,11.30
2022-11-05T21:45:40.072Z,10.37
2022-11-05T21:48:07.723Z,10.10
2022-11-05T21:50:53.370Z,10.80
2022-11-05T21:53:38.687Z,10.70
2022-11-05T21:56:24.701Z,9.93
2022-11-05T21:59:10.179Z,9.57
2022-11-05T22:01:39.642Z,10.50
2022-11-05T22:04:07.282Z,9.60
2022-11-05T22:06:35.228Z,9.60
2022-11-05T22:09:02.695Z,10.90
2022-11-05T22:11:30.429Z,9.40
2022-11-05T22:13:58.194Z,9.40
2022-11-05T22:16:25.966Z,9.50
2022-11-05T22:18:56.827Z,9.20
2022-11-05T22:21:24.885Z,8.83
2022-11-05T22:23:52.426Z,9.23
2022-11-05T22:26:20.277Z,9.10
2022-11-05T22:28:47.879Z,8.03
2022-11-05T22:31:15.764Z,8.90
2022-11-05T22:33:43.245Z,9.83
2022-11-05T22:36:14.250Z,9.60
2022-11-05T22:38:42.221Z,10.30
2022-11-05T22:41:09.774Z,11.03
2022-11-05T22:43:38.203Z,7.77
2022-11-05T22:46:06.799Z,10.00
2022-11-05T22:48:35.747Z,8.83
2022-11-05T22:51:04.345Z,7.67
2022-11-05T22:53:33.721Z,8.17
2022-11-05T22:56:02.922Z,8.80
2022-11-05T22:58:30.741Z,9.90
2022-11-05T23:00:58.699Z,9.07
2022-11-05T23:03:26.560Z,7.53
2022-11-05T23:05:57.510Z,7.83
2022-11-05T23:08:42.472Z,7.80
2022-11-05T23:11:33.159Z,7.37
2022-11-05T23:14:01.254Z,7.50
2022-11-05T23:16:48.163Z,7.93
2022-11-05T23:19:33.795Z,7.17
2022-11-05T23:22:18.921Z,6.63
2022-11-05T23:24:47.874Z,8.00
2022-11-05T23:27:16.705Z,7.97
2022-11-05T23:29:44.589Z,8.00
2022-11-05T23:32:28.362Z,8.50
2022-11-05T23:34:58.097Z,8.27
2022-11-05T23:37:44.202Z,8.00
2022-11-05T23:40:14.948Z,8.10
2022-11-05T23:43:02.084Z,7.80
2022-11-05T23:45:48.348Z,8.23
2022-11-05T23:48:19.503Z,9.07
2022-11-05T23:50:49.115Z,9.13
2022-11-05T23:53:16.980Z,9.40
2022-11-05T23:55:44.659Z,8.20
2022-11-05T23:58:14.167Z,7.77
